Time;durP1;ratioP1;P1;durP2;ratioP2;P2;SDS_P1;SDS_P2;PMS_P1;PMS_P2;Temp;Humidity;BMP_temperature;BMP_pressure;BME280_temperature;BME280_humidity;BME280_pressure;Samples;Min_cycle;Max_cycle;Signal;HPM_P1;HPM_P2
2021/08/26 00:00:46;;;;;;;6.15;4.30;;;;;;;14.65;nan;100397.03;5034088;28;20033;-82
2021/08/26 00:05:56;;;;;;;5.88;3.95;;;;;;;14.65;nan;100395.19;5042045;28;20063;-81
2021/08/26 00:08:23;;;;;;;6.15;4.20;;;;;;;14.64;nan;100392.72;5029836;28;20041;-82
2021/08/26 00:10:51;;;;;;;6.45;3.88;;;;;;;14.64;nan;100382.06;5032042;28;20036;-81
2021/08/26 00:13:17;;;;;;;6.00;3.90;;;;;;;14.54;nan;100385.00;5056282;28;20056;-82
2021/08/26 00:15:45;;;;;;;5.70;3.92;;;;;;;14.49;nan;100376.69;5050963;28;20037;-81
2021/08/26 00:18:11;;;;;;;6.40;4.10;;;;;;;14.48;nan;100371.56;5025059;28;20029;-81
2021/08/26 00:20:36;;;;;;;5.55;3.92;;;;;;;14.54;nan;100371.69;5055294;28;20095;-80
2021/08/26 00:23:02;;;;;;;6.68;4.55;;;;;;;14.50;nan;100366.88;5028467;28;20037;-82
2021/08/26 00:25:27;;;;;;;6.15;4.40;;;;;;;14.42;nan;100370.44;5045106;28;20041;-81
2021/08/26 00:27:53;;;;;;;7.95;4.72;;;;;;;14.37;nan;100372.81;5038554;28;20037;-81
2021/08/26 00:30:18;;;;;;;7.95;4.28;;;;;;;14.32;nan;100373.34;5054056;28;20037;-83
2021/08/26 00:32:43;;;;;;;6.50;4.43;;;;;;;14.29;nan;100370.22;5028659;28;20033;-80
2021/08/26 00:35:10;;;;;;;5.32;3.55;;;;;;;14.33;nan;100359.06;5037979;28;20406;-81
2021/08/26 00:37:35;;;;;;;6.50;4.10;;;;;;;14.37;nan;100348.88;5035308;28;20040;-82
2021/08/26 00:40:01;;;;;;;6.68;4.20;;;;;;;14.29;nan;100354.28;5036286;28;20123;-83
2021/08/26 00:42:26;;;;;;;6.97;4.75;;;;;;;14.24;nan;100352.97;5055940;28;20040;-81
2021/08/26 00:44:52;;;;;;;7.07;4.28;;;;;;;14.26;nan;100349.31;5029115;28;20115;-81
2021/08/26 00:47:17;;;;;;;7.85;4.10;;;;;;;14.36;nan;100350.69;5049831;28;20497;-83
2021/08/26 00:49:43;;;;;;;6.18;4.00;;;;;;;14.31;nan;100346.94;5030032;28;20037;-84
2021/08/26 00:52:10;;;;;;;6.00;4.10;;;;;;;14.26;nan;100351.97;5054870;28;20033;-81
2021/08/26 00:54:36;;;;;;;8.35;4.72;;;;;;;14.21;nan;100356.00;5037925;28;20048;-83
2021/08/26 00:57:01;;;;;;;7.13;4.18;;;;;;;14.22;nan;100348.84;5051749;28;20037;-83
2021/08/26 00:59:27;;;;;;;5.90;4.40;;;;;;;14.16;nan;100353.06;5024119;28;20049;-81
2021/08/26 01:02:05;;;;;;;5.53;4.03;;;;;;;14.11;nan;100351.91;5035870;28;20477;-81
2021/08/26 01:04:49;;;;;;;9.13;4.82;;;;;;;14.01;nan;100339.72;5043033;28;20057;-81
2021/08/26 01:07:34;;;;;;;5.20;3.70;;;;;;;14.02;nan;100337.88;5051925;28;20124;-81
2021/08/26 01:10:08;;;;;;;7.07;4.25;;;;;;;14.08;nan;100344.31;5037918;28;20108;-83
2021/08/26 01:12:37;;;;;;;8.30;4.57;;;;;;;14.02;nan;100348.53;5053868;28;20292;-82
2021/08/26 01:15:03;;;;;;;6.45;4.35;;;;;;;14.05;nan;100352.66;5057077;28;20561;-81
2021/08/26 01:17:30;;;;;;;5.97;4.13;;;;;;;14.06;nan;100348.97;5040880;28;20087;-82
2021/08/26 01:20:02;;;;;;;5.50;3.67;;;;;;;14.05;nan;100358.78;5037830;28;20033;-80
2021/08/26 01:22:29;;;;;;;4.90;3.53;;;;;;;14.08;nan;100353.09;5059679;28;20052;-82
2021/08/26 01:24:58;;;;;;;7.97;4.85;;;;;;;14.22;nan;100340.84;5061405;28;20037;-81
2021/08/26 01:27:51;;;;;;;6.38;4.18;;;;;;;14.14;nan;100336.44;5035826;28;20041;-81
2021/08/26 01:30:22;;;;;;;8.05;4.75;;;;;;;14.07;nan;100335.50;5034491;28;20048;-81
2021/08/26 01:32:49;;;;;;;;;;;;;;;14.12;nan;100341.13;5047434;28;20025;-80
2021/08/26 01:35:14;;;;;;;6.63;4.10;;;;;;;14.07;nan;100330.19;5061536;28;19935;-81
2021/08/26 01:37:41;;;;;;;7.40;4.25;;;;;;;14.08;nan;100328.34;5043073;28;20495;-82
2021/08/26 01:40:08;;;;;;;13.55;4.70;;;;;;;14.04;nan;100333.22;5036927;28;20037;-81
2021/08/26 01:42:34;;;;;;;6.25;4.18;;;;;;;14.17;nan;100325.44;5059633;28;20033;-81
2021/08/26 01:44:59;;;;;;;5.68;4.20;;;;;;;14.13;nan;100328.63;5058666;28;20040;-81
2021/08/26 01:47:25;;;;;;;5.95;4.05;;;;;;;14.27;nan;100321.69;5044566;28;20028;-80
2021/08/26 01:49:52;;;;;;;6.03;3.80;;;;;;;14.33;nan;100313.84;5044807;28;20034;-82
2021/08/26 01:52:23;;;;;;;7.30;4.07;;;;;;;14.38;nan;100311.44;5022627;28;20099;-81
2021/08/26 01:55:00;;;;;;;8.30;4.70;;;;;;;14.33;nan;100323.66;5036840;28;20200;-80
2021/08/26 01:57:26;;;;;;;5.80;4.03;;;;;;;14.37;nan;100317.78;5053761;28;20030;-84
2021/08/26 01:59:53;;;;;;;5.43;3.90;;;;;;;14.45;nan;100298.25;5055232;28;20384;-81
2021/08/26 02:02:19;;;;;;;6.13;4.30;;;;;;;14.42;nan;100304.75;5050461;28;20039;-82
2021/08/26 02:04:44;;;;;;;6.47;4.15;;;;;;;14.39;nan;100297.13;5045208;28;20033;-82
2021/08/26 02:07:09;;;;;;;10.75;4.97;;;;;;;14.49;nan;100304.88;5055021;28;20037;-83
2021/08/26 02:09:35;;;;;;;7.22;5.00;;;;;;;14.40;nan;100298.78;5037767;28;20452;-80
2021/08/26 02:12:00;;;;;;;7.60;4.72;;;;;;;14.37;nan;100296.50;5066352;28;20029;-82
2021/08/26 02:14:26;;;;;;;7.72;4.78;;;;;;;14.36;nan;100302.00;5069669;28;20061;-82
2021/08/26 02:16:51;;;;;;;7.57;4.22;;;;;;;14.39;nan;100297.13;5059203;28;20225;-80
2021/08/26 02:19:17;;;;;;;8.77;5.68;;;;;;;14.31;nan;100296.41;5041375;28;20117;-82
2021/08/26 02:21:42;;;;;;;6.22;4.43;;;;;;;14.29;nan;100293.91;5042430;28;20048;-82
2021/08/26 02:24:08;;;;;;;7.35;4.50;;;;;;;14.21;nan;100286.84;5059257;28;20033;-82
2021/08/26 02:26:34;;;;;;;8.50;5.03;;;;;;;14.13;nan;100278.13;5039724;28;20124;-82
2021/08/26 02:29:00;;;;;;;7.20;5.07;;;;;;;14.12;nan;100274.63;5047744;28;20107;-82
2021/08/26 02:31:26;;;;;;;6.10;4.30;;;;;;;14.10;nan;100273.16;5039468;28;20033;-82
2021/08/26 02:33:51;;;;;;;7.18;4.65;;;;;;;14.13;nan;100270.13;5044959;28;20112;-80
2021/08/26 02:36:17;;;;;;;7.22;4.50;;;;;;;14.13;nan;100273.63;5054487;28;20056;-82
2021/08/26 02:38:42;;;;;;;8.82;5.25;;;;;;;14.05;nan;100263.06;5036612;28;20059;-81
2021/08/26 02:41:08;;;;;;;7.60;4.95;;;;;;;14.07;nan;100268.22;5058312;28;20044;-81
2021/08/26 02:43:33;;;;;;;8.15;5.18;;;;;;;14.05;nan;100276.38;5030707;28;20033;-82
2021/08/26 02:45:59;;;;;;;10.07;5.28;;;;;;;14.00;nan;100276.09;5024316;28;20025;-80
2021/08/26 02:48:24;;;;;;;8.60;5.45;;;;;;;13.98;nan;100278.91;5038198;28;20040;-81
2021/08/26 02:50:50;;;;;;;8.88;5.35;;;;;;;13.95;nan;100276.63;5044510;28;20510;-83
2021/08/26 02:53:15;;;;;;;8.45;4.80;;;;;;;13.96;nan;100280.09;5041401;28;20029;-82
2021/08/26 02:55:40;;;;;;;6.82;4.65;;;;;;;13.99;nan;100277.94;5026285;28;20117;-82
2021/08/26 02:58:06;;;;;;;9.63;5.13;;;;;;;14.07;nan;100269.03;5037477;28;20075;-85
2021/08/26 03:00:31;;;;;;;8.07;5.65;;;;;;;14.00;nan;100278.75;5055974;28;20053;-80
2021/08/26 03:02:56;;;;;;;6.63;4.60;;;;;;;14.02;nan;100277.56;5039037;28;20231;-83
2021/08/26 03:05:21;;;;;;;7.45;5.00;;;;;;;14.06;nan;100275.34;5057172;28;20113;-81
2021/08/26 03:07:47;;;;;;;7.05;4.90;;;;;;;14.08;nan;100273.34;5041906;28;20116;-80
2021/08/26 03:10:12;;;;;;;11.23;4.43;;;;;;;14.13;nan;100267.47;5031828;28;20457;-81
2021/08/26 03:12:38;;;;;;;7.38;4.85;;;;;;;14.15;nan;100268.94;5036679;28;20087;-82
2021/08/26 03:15:03;;;;;;;8.50;4.55;;;;;;;14.22;nan;100269.06;5037437;28;20035;-81
2021/08/26 03:17:29;;;;;;;7.05;4.70;;;;;;;14.23;nan;100266.22;5042854;28;20045;-82
2021/08/26 03:19:54;;;;;;;6.40;4.10;;;;;;;14.28;nan;100268.34;5019981;28;20037;-82
2021/08/26 03:22:19;;;;;;;7.10;4.88;;;;;;;14.28;nan;100260.34;5033081;28;20041;-81
2021/08/26 03:24:45;;;;;;;8.00;5.60;;;;;;;14.37;nan;100258.41;5055722;28;20041;-82
2021/08/26 03:27:10;;;;;;;8.77;5.57;;;;;;;14.32;nan;100260.81;5027491;28;20108;-81
2021/08/26 03:29:35;;;;;;;7.47;4.80;;;;;;;14.37;nan;100255.75;5043674;28;20434;-82
2021/08/26 03:32:01;;;;;;;8.20;4.60;;;;;;;14.45;nan;100250.38;5030415;28;20036;-81
2021/08/26 03:34:26;;;;;;;8.52;5.22;;;;;;;14.42;nan;100248.91;5036852;28;20094;-81
2021/08/26 03:36:51;;;;;;;9.38;5.32;;;;;;;14.55;nan;100250.94;5054306;28;20040;-82
2021/08/26 03:39:17;;;;;;;8.63;5.00;;;;;;;14.62;nan;100251.03;5038434;28;20059;-80
2021/08/26 03:41:42;;;;;;;7.05;4.88;;;;;;;14.65;nan;100240.81;5022614;28;20529;-81
2021/08/26 03:44:07;;;;;;;7.38;4.40;;;;;;;14.67;nan;100243.31;5030617;28;20037;-83
2021/08/26 03:46:33;;;;;;;7.38;5.22;;;;;;;14.62;nan;100246.53;5037860;28;20044;-80
2021/08/26 03:48:58;;;;;;;6.68;4.30;;;;;;;14.58;nan;100250.56;5045872;28;20045;-81
2021/08/26 03:51:23;;;;;;;8.00;5.32;;;;;;;14.48;nan;100247.31;5027110;28;20079;-80
2021/08/26 03:53:49;;;;;;;8.52;5.78;;;;;;;14.44;nan;100248.69;5037824;28;20079;-81
2021/08/26 03:56:14;;;;;;;9.88;5.70;;;;;;;14.36;nan;100241.63;5048324;28;20041;-82
2021/08/26 03:58:39;;;;;;;8.68;5.75;;;;;;;14.35;nan;100239.16;5046183;28;20383;-80
2021/08/26 04:01:05;;;;;;;7.65;5.40;;;;;;;14.34;nan;100240.19;5048441;28;20120;-81
2021/08/26 04:03:31;;;;;;;8.10;5.20;;;;;;;14.30;nan;100230.91;5053873;28;20114;-81
2021/08/26 04:05:57;;;;;;;8.93;6.50;;;;;;;14.26;nan;100226.97;5046811;28;20376;-80
2021/08/26 04:08:22;;;;;;;8.88;6.20;;;;;;;14.29;nan;100231.91;5040954;28;20094;-83
2021/08/26 04:10:48;;;;;;;7.65;5.65;;;;;;;14.29;nan;100226.59;5026334;28;20032;-81
2021/08/26 04:13:14;;;;;;;9.57;6.30;;;;;;;14.31;nan;100227.25;5054847;28;20098;-83
2021/08/26 04:15:39;;;;;;;7.85;5.80;;;;;;;14.32;nan;100223.56;5026552;28;20044;-81
2021/08/26 04:18:04;;;;;;;7.55;5.55;;;;;;;14.35;nan;100221.38;5040931;28;20048;-83
2021/08/26 04:20:29;;;;;;;7.38;4.90;;;;;;;14.42;nan;100234.78;5046515;28;20053;-80
2021/08/26 04:22:55;;;;;;;8.50;5.72;;;;;;;14.44;nan;100232.72;5055876;28;20442;-83
2021/08/26 04:25:20;;;;;;;8.73;6.78;;;;;;;14.42;nan;100230.28;5033588;28;20076;-83
2021/08/26 04:27:45;;;;;;;9.80;6.05;;;;;;;14.47;nan;100234.19;5050124;28;20043;-82
2021/08/26 04:30:12;;;;;;;9.98;6.32;;;;;;;14.47;nan;100237.72;5048488;28;20044;-82
2021/08/26 04:32:37;;;;;;;10.75;6.43;;;;;;;14.44;nan;100230.91;5052378;28;20483;-83
2021/08/26 04:35:02;;;;;;;10.32;7.70;;;;;;;14.45;nan;100237.06;5044451;28;20037;-82
2021/08/26 04:37:29;;;;;;;11.18;7.32;;;;;;;14.45;nan;100245.03;5044135;28;20040;-81
2021/08/26 04:39:54;;;;;;;11.63;8.00;;;;;;;14.37;nan;100253.09;5023904;28;20068;-82
2021/08/26 04:42:20;;;;;;;11.63;8.02;;;;;;;14.32;nan;100244.84;5029744;28;20068;-81
2021/08/26 04:44:45;;;;;;;10.65;7.72;;;;;;;14.33;nan;100243.84;5030458;28;20029;-81
2021/08/26 04:47:10;;;;;;;10.82;7.38;;;;;;;14.22;nan;100240.63;5052735;28;20120;-82
2021/08/26 04:49:36;;;;;;;10.82;7.65;;;;;;;14.20;nan;100237.31;5031476;28;20490;-83
2021/08/26 04:52:01;;;;;;;10.98;7.95;;;;;;;14.15;nan;100231.72;5054039;28;20059;-82
2021/08/26 04:54:26;;;;;;;12.55;8.20;;;;;;;14.17;nan;100242.19;5032370;28;20440;-81
2021/08/26 04:56:52;;;;;;;11.52;7.90;;;;;;;14.07;nan;100236.31;5032145;28;20120;-82
2021/08/26 04:59:17;;;;;;;11.02;7.30;;;;;;;14.03;nan;100241.97;5051582;28;20048;-83
2021/08/26 05:01:42;;;;;;;10.52;6.78;;;;;;;14.08;nan;100252.06;5049164;28;20437;-82
2021/08/26 05:04:08;;;;;;;9.63;6.97;;;;;;;14.15;nan;100238.88;5034969;28;20089;-84
2021/08/26 05:06:33;;;;;;;10.10;7.20;;;;;;;14.15;nan;100247.66;5033129;28;20045;-84
2021/08/26 05:08:59;;;;;;;10.10;7.30;;;;;;;14.15;nan;100246.84;5020681;28;20037;-84
2021/08/26 05:11:25;;;;;;;9.68;6.97;;;;;;;14.20;nan;100253.28;5043431;28;20291;-83
2021/08/26 05:13:50;;;;;;;9.48;7.00;;;;;;;14.21;nan;100254.94;5057703;28;20044;-84
2021/08/26 05:16:15;;;;;;;11.13;8.25;;;;;;;14.17;nan;100256.31;5030978;28;20026;-84
2021/08/26 05:18:40;;;;;;;11.68;8.63;;;;;;;14.13;nan;100259.50;5023733;28;20076;-84
2021/08/26 05:21:06;;;;;;;9.98;7.00;;;;;;;14.11;nan;100250.88;5034207;28;20041;-83
2021/08/26 05:23:31;;;;;;;8.85;6.57;;;;;;;14.16;nan;100257.31;5027562;28;20064;-83
2021/08/26 05:25:56;;;;;;;12.45;8.60;;;;;;;14.18;nan;100255.31;5025865;28;20086;-84
2021/08/26 05:28:22;;;;;;;11.35;8.27;;;;;;;14.22;nan;100256.56;5052611;28;20119;-83
2021/08/26 05:30:47;;;;;;;10.38;8.30;;;;;;;14.21;nan;100257.59;5025268;28;20448;-85
2021/08/26 05:33:13;;;;;;;14.18;9.10;;;;;;;14.22;nan;100255.75;5057245;28;20033;-85
2021/08/26 05:35:39;;;;;;;11.15;8.95;;;;;;;14.11;nan;100254.38;5022128;28;20113;-85
2021/08/26 05:38:04;;;;;;;11.73;8.63;;;;;;;14.12;nan;100264.00;5035629;28;20035;-85
2021/08/26 05:40:31;;;;;;;9.95;7.40;;;;;;;14.18;nan;100262.44;5045245;28;20119;-85
2021/08/26 05:42:56;;;;;;;10.77;8.52;;;;;;;14.19;nan;100259.59;5052216;28;20057;-84
2021/08/26 05:45:21;;;;;;;13.10;9.45;;;;;;;14.26;nan;100261.56;5023844;28;20156;-85
2021/08/26 05:47:48;;;;;;;12.45;8.80;;;;;;;14.18;nan;100262.44;5028790;28;20028;-84
2021/08/26 05:50:13;;;;;;;10.68;8.50;;;;;;;14.21;nan;100262.09;5022082;28;20115;-84
2021/08/26 05:52:39;;;;;;;10.68;7.85;;;;;;;14.21;nan;100262.09;5032876;28;20056;-85
2021/08/26 05:55:05;;;;;;;10.15;8.40;;;;;;;14.21;nan;100256.78;5035407;28;20121;-84
2021/08/26 05:57:30;;;;;;;12.82;9.60;;;;;;;14.21;nan;100262.09;5054403;28;20061;-85
2021/08/26 05:59:56;;;;;;;10.40;8.02;;;;;;;14.22;nan;100248.59;5031139;28;20036;-85
2021/08/26 06:02:21;;;;;;;12.35;8.65;;;;;;;14.26;nan;100256.22;5029624;28;20093;-86
2021/08/26 06:04:46;;;;;;;11.55;8.82;;;;;;;14.26;nan;100256.22;5033831;28;20424;-85
2021/08/26 06:07:11;;;;;;;12.13;9.35;;;;;;;14.24;nan;100248.44;5031952;28;20041;-85
2021/08/26 06:09:37;;;;;;;9.82;7.60;;;;;;;14.28;nan;100251.53;5033891;28;20041;-84
2021/08/26 06:12:02;;;;;;;11.73;8.68;;;;;;;14.26;nan;100250.91;5026055;28;20273;-85
2021/08/26 06:14:28;;;;;;;14.38;11.20;;;;;;;14.31;nan;100243.22;5058556;28;20036;-86
2021/08/26 06:16:53;;;;;;;13.07;10.32;;;;;;;14.35;nan;100247.13;5034741;28;20066;-85
2021/08/26 06:19:18;;;;;;;19.95;14.00;;;;;;;14.44;nan;100236.25;5051954;28;20121;-86
2021/08/26 06:21:44;;;;;;;14.23;10.25;;;;;;;14.39;nan;100238.59;5034269;28;20502;-85
2021/08/26 06:24:09;;;;;;;16.08;11.95;;;;;;;14.45;nan;100242.38;5035412;28;20036;-86
2021/08/26 06:26:37;;;;;;;15.18;11.90;;;;;;;14.42;nan;100237.44;5033030;28;20030;-86
2021/08/26 06:29:03;;;;;;;15.75;11.77;;;;;;;14.38;nan;100236.97;5034209;28;20041;-86
2021/08/26 06:31:28;;;;;;;15.50;11.80;;;;;;;14.29;nan;100240.72;5012091;28;20041;-86
2021/08/26 06:33:54;;;;;;;14.85;11.55;;;;;;;14.31;nan;100241.38;5029574;28;20036;-86
2021/08/26 06:36:19;;;;;;;18.13;13.20;;;;;;;14.38;nan;100244.13;5018830;28;20029;-85
2021/08/26 06:38:44;;;;;;;12.27;10.05;;;;;;;14.33;nan;100255.31;5032397;28;20037;-86
2021/08/26 06:41:10;;;;;;;15.75;11.60;;;;;;;14.37;nan;100250.44;5014310;28;20033;-86
2021/08/26 06:43:36;;;;;;;13.00;9.88;;;;;;;14.31;nan;100251.19;5036404;28;20043;-86
2021/08/26 06:46:02;;;;;;;15.07;11.00;;;;;;;14.35;nan;100253.31;5050849;28;20033;-86
2021/08/26 06:48:27;;;;;;;13.00;9.73;;;;;;;14.39;nan;100254.56;5045116;28;20123;-87
2021/08/26 06:50:52;;;;;;;12.55;9.80;;;;;;;14.36;nan;100248.81;5064060;28;20498;-87
2021/08/26 06:53:18;;;;;;;11.20;8.18;;;;;;;14.37;nan;100264.59;5033591;28;20033;-87
2021/08/26 06:55:43;;;;;;;9.95;7.70;;;;;;;14.38;nan;100255.59;5051235;28;20029;-87
2021/08/26 06:58:08;;;;;;;10.35;7.97;;;;;;;14.45;nan;100250.38;5050920;28;20025;-87
2021/08/26 07:00:34;;;;;;;9.98;7.72;;;;;;;14.54;nan;100259.09;5051369;28;20112;-87
2021/08/26 07:02:59;;;;;;;10.10;8.32;;;;;;;14.56;nan;100251.75;5051235;28;20512;-87
2021/08/26 07:05:25;;;;;;;12.20;9.73;;;;;;;14.55;nan;100258.09;5051084;28;20029;-87
2021/08/26 07:07:50;;;;;;;11.68;9.60;;;;;;;14.55;nan;100258.09;5033558;28;20025;-87
2021/08/26 07:10:16;;;;;;;11.27;8.88;;;;;;;14.60;nan;100258.38;5051437;28;20043;-87
2021/08/26 07:12:42;;;;;;;12.73;10.30;;;;;;;14.55;nan;100261.56;5031786;28;20518;-87
2021/08/26 07:15:08;;;;;;;12.15;9.13;;;;;;;14.64;nan;100263.13;5066669;28;20036;-87
2021/08/26 07:17:33;;;;;;;9.60;7.40;;;;;;;14.65;nan;100267.44;5042096;28;20495;-87
2021/08/26 07:19:58;;;;;;;11.52;8.50;;;;;;;14.72;nan;100269.38;5034093;28;20033;-87
2021/08/26 07:22:24;;;;;;;12.27;9.10;;;;;;;14.74;nan;100264.69;5031912;28;20044;-87
2021/08/26 07:24:49;;;;;;;11.20;8.75;;;;;;;14.71;nan;100265.06;5050983;28;20033;-87
2021/08/26 07:27:15;;;;;;;11.20;9.43;;;;;;;14.69;nan;100264.44;5022872;28;20033;-86
2021/08/26 07:29:41;;;;;;;11.25;8.77;;;;;;;14.79;nan;100271.09;5022224;28;20029;-86
2021/08/26 07:32:06;;;;;;;9.57;7.50;;;;;;;14.86;nan;100269.34;5033152;28;20483;-87
2021/08/26 07:34:31;;;;;;;15.48;11.82;;;;;;;15.04;nan;100270.78;5044052;28;20211;-86
2021/08/26 07:36:57;;;;;;;17.10;13.27;;;;;;;15.08;nan;100274.72;5034074;28;20033;-87
2021/08/26 07:39:22;;;;;;;19.00;14.73;;;;;;;15.10;nan;100267.38;5033029;28;20029;-86
2021/08/26 07:41:48;;;;;;;16.88;12.98;;;;;;;14.93;nan;100274.75;5032642;28;20033;-85
2021/08/26 07:44:13;;;;;;;17.05;13.00;;;;;;;14.81;nan;100281.56;5032196;28;20039;-86
2021/08/26 07:46:38;;;;;;;18.23;13.10;;;;;;;14.94;nan;100281.72;5050398;28;20501;-86
2021/08/26 07:49:05;;;;;;;16.23;12.15;;;;;;;15.09;nan;100276.38;5065382;28;20120;-87
2021/08/26 07:51:30;;;;;;;15.65;12.73;;;;;;;15.16;nan;100276.44;5014105;28;20030;-87
2021/08/26 07:53:56;;;;;;;13.43;10.82;;;;;;;15.27;nan;100278.63;5013949;28;20033;-87
2021/08/26 07:56:21;;;;;;;15.27;12.25;;;;;;;15.40;nan;100270.78;5013600;28;20045;-87
2021/08/26 07:58:46;;;;;;;15.85;13.35;;;;;;;15.33;nan;100277.88;5014000;28;20037;-86
2021/08/26 08:01:12;;;;;;;17.80;13.25;;;;;;;15.44;nan;100272.03;5049474;28;20633;-86
2021/08/26 08:03:37;;;;;;;13.93;10.82;;;;;;;15.45;nan;100279.03;5033403;28;20155;-86
2021/08/26 08:06:03;;;;;;;15.32;11.45;;;;;;;15.70;nan;100271.47;5037217;28;20401;-85
2021/08/26 08:08:29;;;;;;;13.73;9.73;;;;;;;15.85;nan;100276.75;5015200;28;20053;-86
2021/08/26 08:10:54;;;;;;;10.73;8.80;;;;;;;16.34;nan;100273.19;5046709;28;20045;-86
2021/08/26 08:13:20;;;;;;;10.77;7.90;;;;;;;17.04;nan;100267.00;5051269;28;20037;-86
2021/08/26 08:15:45;;;;;;;10.25;7.65;;;;;;;17.33;nan;100274.69;5032763;28;20163;-86
2021/08/26 08:18:13;;;;;;;11.63;7.88;;;;;;;17.92;nan;100269.63;5024597;28;20063;-86
2021/08/26 08:20:40;;;;;;;8.88;6.75;;;;;;;17.96;nan;100266.34;5043338;28;20380;-84
2021/08/26 08:23:06;;;;;;;7.47;5.55;;;;;;;18.25;nan;100261.56;5036560;28;20525;-84
2021/08/26 08:25:31;;;;;;;8.73;6.55;;;;;;;18.42;nan;100257.44;5015553;28;20041;-86
2021/08/26 08:27:59;;;;;;;5.93;4.80;;;;;;;18.45;nan;100259.69;5017919;28;20033;-85
2021/08/26 08:30:28;;;;;;;6.70;4.72;;;;;;;18.24;nan;100260.75;5036146;28;20045;-85
2021/08/26 08:32:55;;;;;;;4.97;3.63;;;;;;;18.38;nan;100256.22;5053075;28;20068;-85
2021/08/26 08:35:24;;;;;;;7.28;4.30;;;;;;;18.53;nan;100253.28;5053827;28;20044;-84
2021/08/26 08:37:50;;;;;;;6.15;4.40;;;;;;;18.06;nan;100257.06;5021281;28;20037;-86
2021/08/26 08:40:16;;;;;;;4.90;3.28;;;;;;;17.88;nan;100247.84;5038919;28;20033;-84
2021/08/26 08:42:44;;;;;;;4.43;2.58;;;;;;;18.11;nan;100242.03;5057926;28;20037;-84
2021/08/26 08:45:09;;;;;;;3.60;2.47;;;;;;;18.30;nan;100247.56;5039580;28;20041;-84
2021/08/26 08:47:36;;;;;;;4.43;2.50;;;;;;;18.74;nan;100254.03;5045840;28;20123;-84
2021/08/26 08:50:01;;;;;;;4.45;2.50;;;;;;;18.97;nan;100250.88;5021329;28;20052;-84
2021/08/26 08:52:27;;;;;;;4.30;2.50;;;;;;;18.96;nan;100257.28;5038288;28;20029;-83
2021/08/26 08:54:53;;;;;;;6.47;2.60;;;;;;;18.56;nan;100247.50;5058460;28;20041;-83
2021/08/26 08:57:20;;;;;;;4.55;2.40;;;;;;;18.19;nan;100252.53;5064163;28;20043;-84
2021/08/26 08:59:45;;;;;;;3.25;2.20;;;;;;;18.33;nan;100253.34;5041960;28;20094;-83
2021/08/26 09:02:11;;;;;;;3.58;1.77;;;;;;;19.90;nan;100259.16;5054434;28;20506;-83
2021/08/26 09:04:57;;;;;;;4.30;1.90;;;;;;;21.00;nan;100261.09;5047609;28;20037;-80
2021/08/26 09:07:27;;;;;;;3.25;1.60;;;;;;;21.78;nan;100256.66;5048514;28;20547;-83
2021/08/26 09:09:53;;;;;;;4.70;2.10;;;;;;;22.50;nan;100257.47;5040212;28;20074;-83
2021/08/26 09:12:20;;;;;;;4.60;1.60;;;;;;;23.21;nan;100268.91;5051519;28;20711;-84
2021/08/26 09:14:46;;;;;;;4.78;1.90;;;;;;;23.65;nan;100261.84;5016604;28;20033;-83
2021/08/26 09:17:18;;;;;;;3.78;1.90;;;;;;;23.73;nan;100263.31;5016526;28;20307;-81
2021/08/26 09:19:44;;;;;;;3.65;2.10;;;;;;;24.40;nan;100264.34;5051902;28;20029;-81
2021/08/26 09:22:21;;;;;;;6.95;1.83;;;;;;;24.25;nan;100259.56;5054105;28;20033;-83
2021/08/26 09:24:51;;;;;;;4.32;2.28;;;;;;;23.40;nan;100259.53;5054917;28;20037;-83
2021/08/26 09:27:32;;;;;;;4.40;2.23;;;;;;;23.03;nan;100257.25;5037229;28;20230;-83
2021/08/26 09:30:03;;;;;;;3.47;1.90;;;;;;;23.27;nan;100240.97;5053260;28;20053;-83
2021/08/26 09:32:45;;;;;;;4.07;2.15;;;;;;;22.34;nan;100245.56;5044416;28;20041;-83
2021/08/26 09:35:22;;;;;;;5.38;2.45;;;;;;;21.21;nan;100240.09;5053569;28;20108;-83
2021/08/26 09:37:51;;;;;;;4.50;1.98;;;;;;;21.03;nan;100237.50;5059006;28;20053;-82
2021/08/26 09:40:19;;;;;;;3.85;1.95;;;;;;;20.73;nan;100233.72;5033191;28;20283;-83
2021/08/26 09:42:54;;;;;;;3.63;1.90;;;;;;;20.41;nan;100226.84;5042188;28;20375;-83
2021/08/26 09:45:23;;;;;;;6.25;1.80;;;;;;;20.52;nan;100234.16;5049216;28;20491;-83
2021/08/26 09:48:07;;;;;;;4.20;1.75;;;;;;;21.03;nan;100237.50;5057342;28;20033;-84
2021/08/26 09:50:46;;;;;;;7.03;2.00;;;;;;;20.95;nan;100234.06;5076315;28;20044;-83
2021/08/26 09:53:13;;;;;;;3.80;1.70;;;;;;;20.13;nan;100234.34;5057026;28;20098;-82
2021/08/26 09:55:48;;;;;;;3.90;2.00;;;;;;;19.93;nan;100237.25;5037232;28;20033;-83
2021/08/26 09:58:14;;;;;;;4.63;2.20;;;;;;;20.05;nan;100237.34;5053989;28;20057;-83
2021/08/26 10:00:39;;;;;;;3.72;1.85;;;;;;;19.73;nan;100225.84;5056128;28;20463;-83
2021/08/26 10:03:09;;;;;;;5.80;2.20;;;;;;;19.37;nan;100231.88;5033913;28;20067;-83
2021/08/26 10:05:37;;;;;;;4.60;2.17;;;;;;;18.89;nan;100234.00;5035674;28;20033;-82
2021/08/26 10:08:03;;;;;;;3.53;2.00;;;;;;;18.70;nan;100239.44;5035918;28;20478;-85
2021/08/26 10:10:29;;;;;;;3.90;2.10;;;;;;;18.38;nan;100239.34;5037343;28;20090;-85
2021/08/26 10:12:55;;;;;;;4.60;2.10;;;;;;;18.60;nan;100232.66;5045830;28;20056;-84
2021/08/26 10:15:20;;;;;;;4.00;1.90;;;;;;;19.44;nan;100235.34;5016687;28;20138;-84
2021/08/26 10:17:46;;;;;;;4.18;2.22;;;;;;;19.00;nan;100224.47;5034745;28;20091;-84
2021/08/26 10:20:11;;;;;;;4.13;1.70;;;;;;;18.65;nan;100232.84;5034441;28;20101;-84
2021/08/26 10:22:37;;;;;;;4.95;2.08;;;;;;;18.67;nan;100232.63;5016329;28;20145;-84
2021/08/26 10:25:02;;;;;;;4.10;2.00;;;;;;;18.63;nan;100232.22;5045004;28;20057;-86
2021/08/26 10:27:31;;;;;;;4.18;1.70;;;;;;;18.53;nan;100226.50;5035720;28;20037;-84
2021/08/26 10:29:57;;;;;;;3.28;1.77;;;;;;;18.42;nan;100225.31;5036147;28;20037;-84
2021/08/26 10:32:24;;;;;;;3.50;1.90;;;;;;;18.29;nan;100227.19;5055807;28;20040;-84
2021/08/26 10:35:10;;;;;;;3.70;1.58;;;;;;;18.62;nan;100227.91;5058041;28;20548;-84
2021/08/26 10:37:51;;;;;;;6.05;1.80;;;;;;;18.65;nan;100232.84;5054518;28;20410;-85
2021/08/26 10:40:34;;;;;;;5.15;1.90;;;;;;;18.56;nan;100235.97;5055115;28;20029;-85
2021/08/26 10:43:00;;;;;;;4.63;1.73;;;;;;;18.90;nan;100229.47;5054827;28;20029;-85
2021/08/26 10:45:29;;;;;;;4.28;1.40;;;;;;;19.27;nan;100229.69;5036308;28;20052;-85
2021/08/26 10:48:00;;;;;;;3.75;1.58;;;;;;;19.63;nan;100228.19;5044952;28;20025;-85
2021/08/26 10:50:28;;;;;;;4.72;2.10;;;;;;;19.19;nan;100238.00;5073467;28;20036;-84
2021/08/26 10:53:04;;;;;;;4.75;2.08;;;;;;;19.19;nan;100238.00;5071592;28;20068;-84
2021/08/26 10:55:44;;;;;;;7.07;2.10;;;;;;;19.16;nan;100225.00;5054224;28;20037;-83
2021/08/26 10:58:25;;;;;;;4.20;1.90;;;;;;;18.94;nan;100233.34;5052564;28;20552;-83
2021/08/26 11:01:00;;;;;;;28.80;2.33;;;;;;;18.86;nan;100228.25;5037573;28;20264;-82
2021/08/26 11:03:31;;;;;;;2.60;1.50;;;;;;;19.05;nan;100231.88;5034019;28;20084;-84
2021/08/26 11:05:57;;;;;;;5.15;1.92;;;;;;;19.27;nan;100235.84;5034848;28;20124;-85
2021/08/26 11:08:30;;;;;;;3.67;1.60;;;;;;;19.41;nan;100238.47;5033368;28;20104;-84
2021/08/26 11:10:57;;;;;;;3.40;1.65;;;;;;;19.39;nan;100240.53;5034381;28;20037;-84
2021/08/26 11:13:34;;;;;;;3.22;1.73;;;;;;;19.38;nan;100230.81;5032792;28;20571;-84
2021/08/26 11:16:24;;;;;;;3.95;1.80;;;;;;;19.40;nan;100240.31;5032685;28;20113;-83
2021/08/26 11:19:18;;;;;;;3.50;1.52;;;;;;;19.59;nan;100235.00;5049670;28;20039;-84
2021/08/26 11:21:46;;;;;;;2.90;1.52;;;;;;;19.85;nan;100242.06;5036250;28;20037;-85
2021/08/26 11:24:12;;;;;;;2.38;1.40;;;;;;;20.14;nan;100241.38;5055072;28;20049;-85
2021/08/26 11:26:44;;;;;;;4.00;1.40;;;;;;;20.47;nan;100226.75;5040149;28;20067;-84
2021/08/26 11:29:22;;;;;;;3.20;1.33;;;;;;;20.30;nan;100231.91;5040250;28;20391;-83
2021/08/26 11:31:53;;;;;;;2.60;1.10;;;;;;;20.21;nan;100229.75;5045456;28;20045;-84
2021/08/26 11:34:30;;;;;;;2.92;1.35;;;;;;;20.03;nan;100230.56;5060268;28;20037;-84
2021/08/26 11:37:03;;;;;;;4.38;2.00;;;;;;;19.68;nan;100228.38;5083407;28;20033;-83
2021/08/26 11:39:32;;;;;;;2.70;1.25;;;;;;;19.60;nan;100229.44;5067657;28;20096;-85
2021/08/26 11:41:58;;;;;;;2.45;1.10;;;;;;;19.47;nan;100224.16;5065951;28;20036;-84